createdAt,value
2019-01-19T00:02:08.482Z,0.40
2019-01-19T00:07:53.987Z,0.50
2019-01-19T00:13:39.214Z,0.40
2019-01-19T00:16:40.536Z,0.40
2019-01-19T00:22:27.312Z,0.30
2019-01-19T00:28:12.062Z,0.20
2019-01-19T00:33:57.662Z,0.20
2019-01-19T00:39:44.444Z,0.20
2019-01-19T00:42:46.127Z,0.10
2019-01-19T00:48:32.666Z,0.00
2019-01-19T00:54:18.144Z,0.10
2019-01-19T01:00:02.986Z,0.00
2019-01-19T01:05:49.586Z,-0.10
2019-01-19T01:11:34.602Z,-0.10
2019-01-19T01:14:36.073Z,-0.10
2019-01-19T01:20:22.883Z,-0.10
2019-01-19T01:26:04.191Z,-0.10
2019-01-19T01:31:50.647Z,-0.10
2019-01-19T01:37:37.123Z,-0.10
2019-01-19T01:40:38.851Z,-0.20
2019-01-19T01:43:40.998Z,-0.20
2019-01-19T01:46:42.055Z,-0.20
2019-01-19T01:52:28.661Z,-0.30
2019-01-19T01:58:15.177Z,-0.20
2019-01-19T02:04:01.038Z,-0.30
2019-01-19T02:07:02.498Z,-0.30
2019-01-19T02:12:49.222Z,-0.30
2019-01-19T02:18:33.854Z,-0.30
2019-01-19T02:24:19.301Z,-0.30
2019-01-19T02:30:05.514Z,-0.40
2019-01-19T02:35:50.964Z,-0.30
2019-01-19T02:38:52.159Z,-0.40
2019-01-19T02:44:37.874Z,-0.40
2019-01-19T02:50:23.026Z,-0.50
2019-01-19T02:56:09.451Z,-0.50
2019-01-19T03:01:55.289Z,-0.50
2019-01-19T03:04:56.807Z,-0.50
2019-01-19T03:10:42.481Z,-0.50
2019-01-19T03:16:28.994Z,-0.50
2019-01-19T03:22:15.305Z,-0.50
2019-01-19T03:28:00.830Z,-0.60
2019-01-19T03:33:46.524Z,-0.60
2019-01-19T03:39:30.764Z,-0.60
2019-01-19T03:42:32.388Z,-0.60
2019-01-19T03:48:17.225Z,-0.60
2019-01-19T03:54:03.670Z,-0.70
2019-01-19T03:59:49.262Z,-0.60
2019-01-19T04:05:34.900Z,-0.60
2019-01-19T04:11:20.560Z,-0.60
2019-01-19T04:14:22.181Z,-0.60
2019-01-19T04:20:08.494Z,-0.60
2019-01-19T04:25:53.389Z,-0.60
2019-01-19T04:31:38.838Z,-0.70
2019-01-19T04:37:25.105Z,-0.60
2019-01-19T04:43:11.631Z,-0.60
2019-01-19T04:46:12.842Z,-0.60
2019-01-19T04:51:58.587Z,-0.60
2019-01-19T04:57:39.231Z,-0.60
2019-01-19T05:03:24.807Z,-0.60
2019-01-19T05:06:30.499Z,-0.50
2019-01-19T05:12:13.849Z,-0.60
2019-01-19T05:17:59.877Z,-0.70
2019-01-19T05:23:45.268Z,-0.70
2019-01-19T05:26:46.025Z,-0.70
2019-01-19T05:32:30.880Z,-0.70
2019-01-19T05:38:15.794Z,-0.80
2019-01-19T05:41:17.844Z,-0.80
2019-01-19T05:44:19.499Z,-0.80
2019-01-19T05:47:20.812Z,-0.70
2019-01-19T05:53:06.775Z,-0.80
2019-01-19T05:58:52.006Z,-0.80
2019-01-19T06:04:38.486Z,-0.80
2019-01-19T06:07:41.567Z,-0.80
2019-01-19T06:13:27.819Z,-0.90
2019-01-19T06:19:14.123Z,-0.90
2019-01-19T06:25:00.326Z,-0.90
2019-01-19T06:28:01.707Z,-0.80
2019-01-19T06:33:47.237Z,-0.90
2019-01-19T06:39:32.565Z,-0.90
2019-01-19T06:45:17.976Z,-0.90
2019-01-19T06:48:18.679Z,-1.00
2019-01-19T06:51:18.746Z,-0.90
2019-01-19T06:54:19.395Z,-0.90
2019-01-19T07:00:04.962Z,-1.00
2019-01-19T07:03:06.365Z,-1.00
2019-01-19T07:08:52.038Z,-1.00
2019-01-19T07:14:38.231Z,-1.10
2019-01-19T07:20:24.946Z,-1.00
2019-01-19T07:23:31.328Z,-1.00
2019-01-19T07:29:16.281Z,-1.00
2019-01-19T07:35:18.601Z,-1.00
2019-01-19T07:41:05.559Z,-1.00
2019-01-19T07:44:07.088Z,-0.90
2019-01-19T07:49:53.542Z,-0.90
2019-01-19T07:55:39.374Z,-0.90
2019-01-19T08:01:24.864Z,-0.80
2019-01-19T08:04:26.172Z,-0.80
2019-01-19T08:10:13.061Z,-0.80
2019-01-19T08:15:58.698Z,-0.80
2019-01-19T08:21:45.094Z,-0.70
2019-01-19T08:27:31.829Z,-0.60
2019-01-19T08:30:33.054Z,-0.50
2019-01-19T08:36:19.555Z,-0.50
2019-01-19T08:39:39.144Z,-0.40
2019-01-19T08:42:39.763Z,-0.40
2019-01-19T08:45:40.649Z,-0.40
2019-01-19T08:51:31.486Z,-0.20
2019-01-19T08:57:16.126Z,-0.10
2019-01-19T09:03:01.474Z,-0.10
2019-01-19T09:08:47.739Z,0.20
2019-01-19T09:11:48.201Z,0.30
2019-01-19T09:14:49.601Z,0.30
2019-01-19T09:17:50.570Z,0.40
2019-01-19T09:23:36.251Z,0.50
2019-01-19T09:29:21.962Z,0.70
2019-01-19T09:35:06.633Z,0.80
2019-01-19T09:40:52.587Z,0.80
2019-01-19T09:43:54.168Z,0.90
2019-01-19T09:49:38.891Z,1.00
2019-01-19T09:55:24.122Z,1.20
2019-01-19T10:01:09.209Z,1.20
2019-01-19T10:04:11.639Z,1.20
2019-01-19T10:07:13.990Z,1.20
2019-01-19T10:10:15.647Z,1.20
2019-01-19T10:16:01.548Z,1.30
2019-01-19T10:21:42.200Z,1.40
2019-01-19T10:27:27.678Z,1.50
2019-01-19T10:33:11.564Z,1.70
2019-01-19T10:38:56.360Z,1.80
2019-01-19T10:41:57.475Z,1.80
2019-01-19T10:47:42.838Z,1.90
2019-01-19T10:53:28.374Z,2.00
2019-01-19T10:59:14.324Z,2.20
2019-01-19T11:02:15.611Z,2.20
2019-01-19T11:08:03.983Z,2.30
2019-01-19T11:13:47.570Z,2.50
2019-01-19T11:19:32.442Z,2.40
2019-01-19T11:22:33.283Z,2.60
2019-01-19T11:28:18.975Z,2.80
2019-01-19T11:34:04.599Z,2.90
2019-01-19T11:39:51.179Z,3.20
2019-01-19T11:43:15.796Z,3.20
2019-01-19T11:46:35.225Z,3.30
2019-01-19T11:49:34.805Z,3.40
2019-01-19T11:55:20.479Z,3.40
2019-01-19T11:58:21.726Z,3.40
2019-01-19T12:04:07.401Z,3.40
2019-01-19T12:09:52.823Z,3.50
2019-01-19T12:15:39.542Z,3.50
2019-01-19T12:18:40.542Z,3.50
2019-01-19T12:24:27.109Z,3.60
2019-01-19T12:30:13.583Z,3.60
2019-01-19T12:35:59.690Z,3.60
2019-01-19T12:39:00.912Z,3.70
2019-01-19T12:44:46.607Z,3.80
2019-01-19T12:50:32.791Z,3.80
2019-01-19T12:56:18.866Z,3.80
2019-01-19T12:59:20.206Z,3.70
2019-01-19T13:05:06.191Z,3.80
2019-01-19T13:10:51.673Z,3.70
2019-01-19T13:16:38.129Z,3.60
2019-01-19T13:19:39.371Z,3.60
2019-01-19T13:25:25.678Z,3.50
2019-01-19T13:31:11.347Z,3.60
2019-01-19T13:36:52.696Z,3.60
2019-01-19T13:42:38.006Z,3.80
2019-01-19T13:48:23.825Z,3.80
2019-01-19T13:51:25.259Z,3.80
2019-01-19T13:54:27.856Z,3.80
2019-01-19T13:57:29.343Z,3.80
2019-01-19T14:03:15.945Z,3.90
2019-01-19T14:09:02.518Z,3.90
2019-01-19T14:14:47.475Z,3.70
2019-01-19T14:17:48.610Z,3.60
2019-01-19T14:23:34.230Z,3.50
2019-01-19T14:29:20.630Z,3.40
2019-01-19T14:35:07.249Z,3.30
2019-01-19T14:44:17.150Z,3.20
2019-01-19T14:50:02.718Z,3.10
2019-01-19T14:55:48.124Z,3.00
2019-01-19T15:01:33.933Z,2.90
2019-01-19T15:07:20.367Z,2.80
2019-01-19T15:13:05.661Z,2.70
2019-01-19T15:18:51.367Z,2.60
2019-01-19T15:24:33.531Z,2.60
2019-01-19T15:30:19.433Z,2.40
2019-01-19T15:36:03.991Z,2.30
2019-01-19T15:39:10.897Z,2.20
2019-01-19T15:44:52.093Z,2.20
2019-01-19T15:50:38.050Z,2.10
2019-01-19T15:56:24.654Z,2.00
2019-01-19T16:02:10.985Z,1.90
2019-01-19T16:07:57.179Z,1.70
2019-01-19T16:10:58.302Z,1.70
2019-01-19T16:16:44.130Z,1.60
2019-01-19T16:22:30.306Z,1.60
2019-01-19T16:28:16.562Z,1.50
2019-01-19T16:34:02.894Z,1.40
2019-01-19T16:37:03.457Z,1.30
2019-01-19T16:42:48.890Z,1.30
2019-01-19T16:48:35.054Z,1.20
2019-01-19T16:54:20.911Z,1.20
2019-01-19T17:00:07.162Z,1.10
2019-01-19T17:05:53.486Z,1.10
2019-01-19T17:11:39.451Z,1.00
2019-01-19T17:14:41.007Z,1.00
2019-01-19T17:20:26.536Z,0.90
2019-01-19T17:26:12.397Z,0.90
2019-01-19T17:31:58.895Z,0.80
2019-01-19T17:37:44.127Z,0.80
2019-01-19T17:40:45.387Z,0.70
2019-01-19T17:46:31.961Z,0.70
2019-01-19T17:52:17.242Z,0.60
2019-01-19T17:58:03.846Z,0.60
2019-01-19T18:03:49.550Z,0.50
2019-01-19T18:09:34.287Z,0.50
2019-01-19T18:12:35.525Z,0.50
2019-01-19T18:18:21.203Z,0.50
2019-01-19T18:24:05.742Z,0.50
2019-01-19T18:29:51.311Z,0.40
2019-01-19T18:35:58.018Z,0.40
2019-01-19T18:38:59.399Z,0.40
2019-01-19T18:44:44.179Z,0.30
2019-01-19T18:50:29.083Z,0.30
2019-01-19T18:56:13.998Z,0.20
2019-01-19T19:01:59.154Z,0.20
2019-01-19T19:07:44.935Z,0.20
2019-01-19T19:10:45.442Z,0.10
2019-01-19T19:16:31.160Z,0.20
2019-01-19T19:22:17.578Z,0.20
2019-01-19T19:28:03.023Z,0.20
2019-01-19T19:33:47.869Z,0.20
2019-01-19T19:39:33.622Z,0.10
2019-01-19T19:45:20.343Z,0.00
2019-01-19T19:48:21.443Z,0.00
2019-01-19T19:54:06.847Z,0.00
2019-01-19T19:59:51.886Z,-0.10
2019-01-19T20:05:37.548Z,-0.10
2019-01-19T20:08:38.820Z,-0.10
2019-01-19T20:14:23.430Z,-0.20
2019-01-19T20:17:25.211Z,-0.20
2019-01-19T20:20:26.617Z,-0.20
2019-01-19T20:26:12.744Z,-0.20
2019-01-19T20:31:58.277Z,-0.30
2019-01-19T20:37:42.933Z,-0.30
2019-01-19T20:40:44.222Z,-0.40
2019-01-19T20:46:31.555Z,-0.40
2019-01-19T20:52:17.649Z,-0.50
2019-01-19T20:58:04.025Z,-0.60
2019-01-19T21:03:50.329Z,-0.60
2019-01-19T21:09:36.283Z,-0.60
2019-01-19T21:12:37.405Z,-0.60
2019-01-19T21:18:23.235Z,-0.60
2019-01-19T21:24:08.640Z,-0.70
2019-01-19T21:29:54.361Z,-0.70
2019-01-19T21:32:55.688Z,-0.70
2019-01-19T21:38:40.574Z,-0.70
2019-01-19T21:44:26.273Z,-0.70
2019-01-19T21:47:28.417Z,-0.80
2019-01-19T21:50:29.667Z,-0.80
2019-01-19T21:56:15.177Z,-0.80
2019-01-19T21:59:16.442Z,-0.80
2019-01-19T22:05:03.038Z,-0.80
2019-01-19T22:10:48.654Z,-0.80
2019-01-19T22:16:34.427Z,-0.80
2019-01-19T22:19:34.931Z,-0.80
2019-01-19T22:25:20.474Z,-0.90
2019-01-19T22:31:07.251Z,-0.90
2019-01-19T22:36:53.095Z,-0.90
2019-01-19T22:39:53.635Z,-1.00
2019-01-19T22:45:39.373Z,-1.00
2019-01-19T22:51:24.384Z,-1.00
2019-01-19T22:57:08.922Z,-1.00
2019-01-19T23:00:10.455Z,-1.00
2019-01-19T23:05:55.180Z,-1.00
2019-01-19T23:11:41.411Z,-1.00
2019-01-19T23:17:26.116Z,-1.10
2019-01-19T23:23:11.708Z,-1.10
2019-01-19T23:26:12.922Z,-1.10
2019-01-19T23:31:58.850Z,-1.10
2019-01-19T23:35:01.346Z,-1.10
2019-01-19T23:38:02.807Z,-1.10
2019-01-19T23:43:47.679Z,-1.20
2019-01-19T23:46:54.872Z,-1.20
2019-01-19T23:52:40.767Z,-1.20
2019-01-19T23:58:26.053Z,-1.20
